Αρχική σελίδα
METAR-TAF:

METAR-TAF

Αεροδρόμια :

Lincoln, Καλιφόρνια, Ηνωμένες Πολιτείες Αμερικής

γεωγραφικό πλάτος: 38-54-33N, γεωγραφικό μήκος: 121-21-05W, υψόμετρο: 37 μ

Παρών καιρός

Η αναφορά έγινε 10 λεπτά πριν, στις 19:15 UTC
Άνεμος 4 kt από Δ/BΔ
Θερμοκρασία 14°C
Υγρασία 38%
Πίεση 1019 hPa
Ορατότητα: 6.4 χλμ
Καθαρός ουρανός

METAR: KLHM 181915Z AUTO 29004KT 4SM CLR 14/00 A3010 RMK AO1

Χρόνος: 11:25 (19:25 UTC)


TAF: λείπει

Μετεωρολογικές αναφορές και προγνώσεις για περισσότερα από 4000 αεροδρόμια (δελτία METAR και TAF).

Οι διαθέσιμοι σταθμοί απεικονίζονται στο χάρτη με κίτρινες και κόκκινες κουκκίδες.

Μετακινήστε το ποντίκι πάνω από τις κουκκίδες για να δείτε το όνομα του σταθμού.

Στη συνέχεια, κάντε κλικ για να δείτε τις μετεωρολογικές αναφορές και τις προγνώσεις καιρού.

Για να αλλάξετε το χάρτη: κάντε κλικ στα πράσινα κουμπιά με τον μαύρο σταυρό για να ζουμάρετε, στο πράσινο κουμπί με την παύλα για να αφαιρέσετε το ζουμ ή στα πράσινα βέλη για να αντιπαραβάλλετε χάρτες.


METAR-TAF: